createdAt,value
2022-11-16T00:00:35.304Z,100454.44
2022-11-16T00:03:03.989Z,100456.19
2022-11-16T00:05:31.016Z,100461.44
2022-11-16T00:07:58.234Z,100465.88
2022-11-16T00:10:25.132Z,100462.38
2022-11-16T00:12:51.961Z,100454.47
2022-11-16T00:15:18.839Z,100454.50
2022-11-16T00:17:45.728Z,100446.59
2022-11-16T00:20:12.744Z,100456.22
2022-11-16T00:22:39.596Z,100457.09
2022-11-16T00:25:07.106Z,100441.34
2022-11-16T00:27:33.949Z,100448.34
2022-11-16T00:30:00.832Z,100437.88
2022-11-16T00:32:27.693Z,100428.22
2022-11-16T00:34:54.637Z,100436.09
2022-11-16T00:37:21.533Z,100432.63
2022-11-16T00:39:48.414Z,100432.59
2022-11-16T00:42:15.381Z,100428.25
2022-11-16T00:44:42.218Z,100429.13
2022-11-16T00:47:09.137Z,100429.13
2022-11-16T00:49:36.274Z,100423.84
2022-11-16T00:52:03.161Z,100423.00
2022-11-16T00:54:30.124Z,100419.50
2022-11-16T00:56:58.048Z,100418.63
2022-11-16T00:59:25.886Z,100418.63
2022-11-16T01:01:56.558Z,100411.63
2022-11-16T01:04:23.513Z,100402.88
2022-11-16T01:06:50.525Z,100395.88
2022-11-16T01:09:17.423Z,100402.88
2022-11-16T01:12:06.010Z,100412.50
2022-11-16T01:14:32.897Z,100395.88
2022-11-16T01:17:00.456Z,100396.75
2022-11-16T01:19:27.840Z,100394.16
2022-11-16T01:21:54.939Z,100386.28
2022-11-16T01:24:22.107Z,100393.25
2022-11-16T01:26:48.997Z,100387.94
2022-11-16T01:29:16.089Z,100376.63
2022-11-16T01:31:48.625Z,100374.00
2022-11-16T01:34:15.939Z,100379.16
2022-11-16T01:36:42.839Z,100376.50
2022-11-16T01:39:13.053Z,100377.34
2022-11-16T01:41:45.963Z,100377.38
2022-11-16T01:44:32.601Z,100370.38
2022-11-16T01:47:11.708Z,100372.91
2022-11-16T01:49:43.285Z,100364.13
2022-11-16T01:52:16.537Z,100361.38
2022-11-16T01:54:46.445Z,100355.91
2022-11-16T01:57:20.350Z,100352.06
2022-11-16T02:00:00.327Z,100355.22
2022-11-16T02:02:41.322Z,100341.50
2022-11-16T02:05:22.997Z,100350.22
2022-11-16T02:08:29.199Z,100350.84
2022-11-16T02:11:23.645Z,100350.63
2022-11-16T02:14:03.956Z,100354.25
2022-11-16T02:16:58.938Z,100347.31
2022-11-16T02:19:43.816Z,100343.75
2022-11-16T02:22:37.250Z,100343.88
2022-11-16T02:25:53.982Z,100343.44
2022-11-16T02:28:53.629Z,100341.53
2022-11-16T02:31:27.352Z,100331.78
2022-11-16T02:33:58.961Z,100332.66
2022-11-16T02:36:26.349Z,100318.81
2022-11-16T02:39:00.977Z,100316.22
2022-11-16T02:41:34.040Z,100315.34
2022-11-16T02:44:07.483Z,100319.16
2022-11-16T02:46:38.055Z,100313.78
2022-11-16T02:49:14.311Z,100305.75
2022-11-16T02:51:42.492Z,100302.31
2022-11-16T02:54:15.657Z,100314.41
2022-11-16T02:57:04.123Z,100298.13
2022-11-16T02:59:44.311Z,100299.94
2022-11-16T03:02:39.107Z,100304.88
2022-11-16T03:05:32.188Z,100300.38
2022-11-16T03:08:07.175Z,100293.16
2022-11-16T03:10:57.490Z,100291.59
2022-11-16T03:13:29.292Z,100290.63
2022-11-16T03:15:57.033Z,100285.94
2022-11-16T03:18:29.199Z,100285.81
2022-11-16T03:21:12.962Z,100284.97
2022-11-16T03:23:40.053Z,100283.28
2022-11-16T03:26:10.551Z,100283.19
2022-11-16T03:28:48.335Z,100279.13
2022-11-16T03:31:25.844Z,100291.72
2022-11-16T03:33:57.273Z,100284.56
2022-11-16T03:36:33.956Z,100290.75
2022-11-16T03:39:11.290Z,100290.84
2022-11-16T03:41:46.808Z,100288.56
2022-11-16T03:44:16.154Z,100276.31
2022-11-16T03:46:45.050Z,100272.47
2022-11-16T03:49:13.726Z,100272.66
2022-11-16T03:51:41.808Z,100266.91
2022-11-16T03:54:08.784Z,100260.34
2022-11-16T03:56:36.328Z,100258.84
2022-11-16T03:59:03.660Z,100259.97
2022-11-16T04:01:31.604Z,100254.69
2022-11-16T04:03:59.837Z,100249.38
2022-11-16T04:06:45.383Z,100250.13
2022-11-16T04:09:24.141Z,100246.44
2022-11-16T04:12:09.699Z,100254.59
2022-11-16T04:14:57.665Z,100260.19
2022-11-16T04:17:45.899Z,100250.59
2022-11-16T04:20:33.273Z,100250.56
2022-11-16T04:23:33.212Z,100244.38
2022-11-16T04:26:02.265Z,100243.75
2022-11-16T04:28:34.180Z,100244.19
2022-11-16T04:31:23.537Z,100243.28
2022-11-16T04:34:35.196Z,100243.19
2022-11-16T04:37:22.331Z,100246.50
2022-11-16T04:39:49.271Z,100241.34
2022-11-16T04:42:19.960Z,100238.03
2022-11-16T04:45:08.622Z,100240.06
2022-11-16T04:47:45.384Z,100228.88
2022-11-16T04:50:12.344Z,100232.06
2022-11-16T04:52:41.372Z,100232.31
2022-11-16T04:55:12.353Z,100221.84
2022-11-16T04:57:40.252Z,100217.28
2022-11-16T05:00:08.577Z,100222.53
2022-11-16T05:02:37.362Z,100222.75
2022-11-16T05:05:04.579Z,100220.09
2022-11-16T05:07:31.562Z,100222.66
2022-11-16T05:10:07.893Z,100213.13
2022-11-16T05:12:35.251Z,100219.91
2022-11-16T05:15:06.392Z,100207.81
2022-11-16T05:17:34.365Z,100210.63
2022-11-16T05:20:21.652Z,100213.31
2022-11-16T05:22:56.913Z,100209.66
2022-11-16T05:25:26.834Z,100209.66
2022-11-16T05:27:54.291Z,100216.41
2022-11-16T05:30:21.433Z,100207.25
2022-11-16T05:32:49.040Z,100210.06
2022-11-16T05:35:18.461Z,100205.66
2022-11-16T05:37:46.255Z,100201.22
2022-11-16T05:40:13.315Z,100200.63
2022-11-16T05:42:50.120Z,100203.75
2022-11-16T05:45:21.128Z,100201.22
2022-11-16T05:47:49.320Z,100208.94
2022-11-16T05:50:16.827Z,100200.53
2022-11-16T05:52:46.959Z,100208.19
2022-11-16T05:55:13.891Z,100200.44
2022-11-16T05:57:44.209Z,100197.06
2022-11-16T06:00:12.359Z,100190.38
2022-11-16T06:02:42.373Z,100190.69
2022-11-16T06:05:17.553Z,100196.06
2022-11-16T06:07:45.312Z,100196.00
2022-11-16T06:10:12.583Z,100188.81
2022-11-16T06:12:42.117Z,100188.38
2022-11-16T06:15:09.344Z,100185.88
2022-11-16T06:17:36.606Z,100186.81
2022-11-16T06:20:03.981Z,100183.47
2022-11-16T06:22:31.304Z,100175.38
2022-11-16T06:24:58.241Z,100181.72
2022-11-16T06:27:26.397Z,100171.25
2022-11-16T06:29:53.292Z,100169.25
2022-11-16T06:32:21.186Z,100166.84
2022-11-16T06:34:48.102Z,100161.72
2022-11-16T06:37:15.904Z,100151.13
2022-11-16T06:39:43.163Z,100154.56
2022-11-16T06:42:10.342Z,100153.63
2022-11-16T06:44:38.699Z,100145.00
2022-11-16T06:47:08.092Z,100132.09
2022-11-16T06:49:35.804Z,100144.25
2022-11-16T06:52:08.097Z,100134.72
2022-11-16T06:54:35.592Z,100136.47
2022-11-16T06:57:02.960Z,100138.97
2022-11-16T06:59:30.014Z,100131.16
2022-11-16T07:01:57.164Z,100126.03
2022-11-16T07:04:25.215Z,100124.25
2022-11-16T07:06:56.122Z,100121.66
2022-11-16T07:09:23.162Z,100122.53
2022-11-16T07:11:50.302Z,100115.59
2022-11-16T07:14:18.678Z,100113.81
2022-11-16T07:16:45.729Z,100111.16
2022-11-16T07:19:12.836Z,100118.94
2022-11-16T07:21:41.045Z,100116.19
2022-11-16T07:24:13.687Z,100115.00
2022-11-16T07:26:40.559Z,100115.13
2022-11-16T07:29:12.697Z,100114.91
2022-11-16T07:31:44.218Z,100112.72
2022-11-16T07:34:46.274Z,100115.06
2022-11-16T07:37:16.103Z,100109.13
2022-11-16T07:39:45.731Z,100112.38
2022-11-16T07:42:13.416Z,100102.88
2022-11-16T07:44:59.206Z,100096.25
2022-11-16T07:47:26.261Z,100094.94
2022-11-16T07:49:55.445Z,100088.88
2022-11-16T07:52:25.785Z,100095.03
2022-11-16T07:54:57.623Z,100086.97
2022-11-16T07:57:27.039Z,100083.41
2022-11-16T07:59:56.194Z,100085.19
2022-11-16T08:02:23.448Z,100089.16
2022-11-16T08:04:51.329Z,100090.81
2022-11-16T08:07:23.035Z,100088.88
2022-11-16T08:09:55.543Z,100082.25
2022-11-16T08:12:22.884Z,100083.69
2022-11-16T08:14:49.821Z,100081.06
2022-11-16T08:17:16.677Z,100074.88
2022-11-16T08:19:44.266Z,100083.34
2022-11-16T08:22:14.490Z,100078.78
2022-11-16T08:24:42.465Z,100080.25
2022-11-16T08:27:09.507Z,100063.50
2022-11-16T08:29:36.621Z,100061.25
2022-11-16T08:32:06.293Z,100058.13
2022-11-16T08:34:34.749Z,100055.69
2022-11-16T08:37:01.683Z,100050.38
2022-11-16T08:39:43.983Z,100049.44
2022-11-16T08:42:10.898Z,100060.38
2022-11-16T08:44:39.467Z,100049.22
2022-11-16T08:47:11.332Z,100050.28
2022-11-16T08:49:49.243Z,100051.25
2022-11-16T08:52:18.557Z,100042.19
2022-11-16T08:54:46.409Z,100047.66
2022-11-16T08:57:13.490Z,100050.28
2022-11-16T08:59:42.782Z,100036.16
2022-11-16T09:02:13.177Z,100040.97
2022-11-16T09:04:40.196Z,100039.13
2022-11-16T09:07:07.209Z,100035.44
2022-11-16T09:09:34.185Z,100036.78
2022-11-16T09:12:01.121Z,100038.38
2022-11-16T09:14:37.887Z,100022.44
2022-11-16T09:17:04.808Z,100019.78
2022-11-16T09:19:31.731Z,100013.66
2022-11-16T09:21:58.708Z,100008.69
2022-11-16T09:24:25.630Z,99997.00
2022-11-16T09:26:52.681Z,99996.41
2022-11-16T09:29:19.686Z,99989.47
2022-11-16T09:31:46.721Z,99979.72
2022-11-16T09:34:13.694Z,99979.72
2022-11-16T09:36:40.620Z,99973.31
2022-11-16T09:42:19.721Z,99969.59
2022-11-16T09:45:00.185Z,99970.78
2022-11-16T09:47:51.863Z,99975.22
2022-11-16T09:53:36.203Z,99963.66
2022-11-16T09:56:05.631Z,99951.25
2022-11-16T09:59:00.313Z,99945.03
2022-11-16T10:01:32.765Z,99942.84
2022-11-16T10:04:07.180Z,99937.41
2022-11-16T10:07:08.917Z,99932.47
2022-11-16T10:09:36.291Z,99922.72
2022-11-16T10:12:24.205Z,99924.28
2022-11-16T10:15:15.932Z,99922.03
2022-11-16T10:17:57.819Z,99919.56
2022-11-16T10:20:37.991Z,99917.72
2022-11-16T10:23:19.894Z,99903.53
2022-11-16T10:25:58.133Z,99903.94
2022-11-16T10:28:44.414Z,99897.53
2022-11-16T10:31:26.483Z,99894.09
2022-11-16T10:33:57.116Z,99886.16
2022-11-16T10:36:27.871Z,99890.88
2022-11-16T10:38:57.428Z,99888.00
2022-11-16T10:41:24.505Z,99885.13
2022-11-16T10:43:51.526Z,99876.06
2022-11-16T10:46:21.011Z,99871.66
2022-11-16T10:49:06.706Z,99874.69
2022-11-16T10:51:33.641Z,99862.84
2022-11-16T10:54:00.582Z,99861.41
2022-11-16T10:56:40.487Z,99857.06
2022-11-16T10:59:12.607Z,99849.44
2022-11-16T11:01:39.564Z,99848.00
2022-11-16T11:04:28.955Z,99845.84
2022-11-16T11:06:57.169Z,99845.41
2022-11-16T11:09:34.108Z,99833.19
2022-11-16T11:12:32.853Z,99835.66
2022-11-16T11:15:11.617Z,99828.91
2022-11-16T11:17:44.183Z,99835.44
2022-11-16T11:20:17.218Z,99825.56
2022-11-16T11:22:54.048Z,99828.50
2022-11-16T11:25:41.324Z,99819.84
2022-11-16T11:28:43.302Z,99819.91
2022-11-16T11:31:22.762Z,99814.75
2022-11-16T11:33:52.076Z,99809.63
2022-11-16T11:36:22.720Z,99813.84
2022-11-16T11:38:59.113Z,99799.78
2022-11-16T11:41:32.568Z,99804.13
2022-11-16T11:44:05.207Z,99793.94
2022-11-16T11:47:42.503Z,99794.47
2022-11-16T11:49:43.103Z,99786.09
2022-11-16T11:52:19.716Z,99785.19
2022-11-16T11:54:49.162Z,99795.31
2022-11-16T11:57:23.368Z,99794.56
2022-11-16T11:59:52.317Z,99788.28
2022-11-16T12:03:15.531Z,99780.16
2022-11-16T12:05:57.764Z,99772.00
2022-11-16T12:08:32.660Z,99773.25
2022-11-16T12:11:06.443Z,99766.81
2022-11-16T12:14:05.885Z,99773.81
2022-11-16T12:17:01.044Z,99763.84
2022-11-16T12:19:43.268Z,99763.78
2022-11-16T12:22:55.745Z,99762.72
2022-11-16T12:25:27.047Z,99758.06
2022-11-16T12:28:30.462Z,99748.63
2022-11-16T12:31:28.921Z,99750.53
2022-11-16T12:34:14.146Z,99735.09
2022-11-16T12:36:49.653Z,99744.31
2022-11-16T12:39:35.760Z,99736.66
2022-11-16T12:42:27.784Z,99737.59
2022-11-16T12:45:10.438Z,99744.81
2022-11-16T12:48:11.589Z,99741.88
2022-11-16T12:50:41.327Z,99743.53
2022-11-16T12:53:36.346Z,99744.59
2022-11-16T12:56:06.059Z,99738.47
2022-11-16T12:58:46.105Z,99726.31
2022-11-16T13:01:23.337Z,99731.25
2022-11-16T13:03:55.311Z,99728.31
2022-11-16T13:06:32.101Z,99725.94
2022-11-16T13:09:06.166Z,99735.47
2022-11-16T13:11:40.336Z,99734.22
2022-11-16T13:14:15.925Z,99733.34
2022-11-16T13:16:44.628Z,99729.78
2022-11-16T13:19:15.983Z,99731.16
2022-11-16T13:22:06.305Z,99728.06
2022-11-16T13:24:45.289Z,99719.53
2022-11-16T13:27:41.851Z,99722.47
2022-11-16T13:30:21.779Z,99721.72
2022-11-16T13:33:22.294Z,99733.22
2022-11-16T13:35:49.156Z,99729.41
2022-11-16T13:38:52.615Z,99729.44
2022-11-16T13:41:33.752Z,99721.97
2022-11-16T13:44:02.820Z,99729.00
2022-11-16T13:46:55.836Z,99717.50
2022-11-16T13:49:33.265Z,99715.22
2022-11-16T13:52:22.528Z,99718.47
2022-11-16T13:54:55.686Z,99727.25
2022-11-16T13:57:34.028Z,99726.84
2022-11-16T14:00:00.844Z,99718.38
2022-11-16T14:02:39.238Z,99720.00
2022-11-16T14:05:13.155Z,99727.28
2022-11-16T14:07:51.098Z,99729.59
2022-11-16T14:10:38.719Z,99724.72
2022-11-16T14:13:26.507Z,99710.47
2022-11-16T14:16:16.883Z,99722.34
2022-11-16T14:18:45.252Z,99722.94
2022-11-16T14:21:21.942Z,99723.63
2022-11-16T14:23:57.757Z,99719.59
2022-11-16T14:26:46.453Z,99732.59
2022-11-16T14:29:34.837Z,99719.28
2022-11-16T14:32:03.608Z,99722.78
2022-11-16T14:34:32.371Z,99723.19
2022-11-16T14:37:00.601Z,99718.97
2022-11-16T14:39:32.141Z,99715.03
2022-11-16T14:42:16.369Z,99719.19
2022-11-16T14:44:43.877Z,99723.34
2022-11-16T14:47:23.637Z,99731.97
2022-11-16T14:49:51.372Z,99730.75
2022-11-16T14:52:35.236Z,99725.09
2022-11-16T14:55:06.540Z,99733.00
2022-11-16T14:57:33.648Z,99728.81
2022-11-16T15:00:11.190Z,99733.72
2022-11-16T15:02:39.920Z,99731.13
2022-11-16T15:05:07.346Z,99741.50
2022-11-16T15:07:34.442Z,99741.75
2022-11-16T15:10:01.523Z,99737.72
2022-11-16T15:12:42.200Z,99742.03
2022-11-16T15:15:11.843Z,99746.41
2022-11-16T15:17:41.828Z,99750.25
2022-11-16T15:20:25.234Z,99751.97
2022-11-16T15:22:54.762Z,99755.44
2022-11-16T15:25:32.076Z,99758.03
2022-11-16T15:28:02.729Z,99767.16
2022-11-16T15:30:34.202Z,99755.09
2022-11-16T15:33:16.175Z,99760.91
2022-11-16T15:35:43.244Z,99760.72
2022-11-16T15:38:25.970Z,99764.13
2022-11-16T15:40:56.326Z,99755.34
2022-11-16T15:43:31.453Z,99765.38
2022-11-16T15:45:59.752Z,99770.78
2022-11-16T15:48:27.948Z,99765.94
2022-11-16T15:51:03.154Z,99767.09
2022-11-16T15:53:37.524Z,99759.88
2022-11-16T15:56:30.677Z,99769.53
2022-11-16T15:59:01.290Z,99767.75
2022-11-16T16:01:31.187Z,99768.16
2022-11-16T16:04:01.238Z,99766.22
2022-11-16T16:06:44.281Z,99771.53
2022-11-16T16:09:49.318Z,99775.28
2022-11-16T16:12:19.862Z,99775.56
2022-11-16T16:14:49.267Z,99777.84
2022-11-16T16:17:28.362Z,99773.41
2022-11-16T16:19:58.221Z,99775.19
2022-11-16T16:22:29.781Z,99778.13
2022-11-16T16:24:57.030Z,99779.53
2022-11-16T16:27:26.374Z,99777.09
2022-11-16T16:29:55.517Z,99775.69
2022-11-16T16:32:27.057Z,99782.13
2022-11-16T16:34:55.830Z,99768.69
2022-11-16T16:37:23.714Z,99776.94
2022-11-16T16:39:50.670Z,99779.44
2022-11-16T16:42:18.006Z,99769.13
2022-11-16T16:44:46.048Z,99767.56
2022-11-16T16:47:13.555Z,99768.41
2022-11-16T16:49:40.681Z,99766.66
2022-11-16T16:52:08.635Z,99763.84
2022-11-16T16:54:35.471Z,99764.88
2022-11-16T16:57:02.562Z,99755.22
2022-11-16T16:59:32.277Z,99761.63
2022-11-16T17:01:59.458Z,99755.28
2022-11-16T17:04:26.676Z,99754.91
2022-11-16T17:06:54.345Z,99749.81
2022-11-16T17:09:21.518Z,99748.03
2022-11-16T17:11:48.588Z,99751.75
2022-11-16T17:14:15.585Z,99747.56
2022-11-16T17:16:42.427Z,99751.25
2022-11-16T17:19:09.949Z,99747.19
2022-11-16T17:21:36.780Z,99757.06
2022-11-16T17:24:03.929Z,99760.53
2022-11-16T17:26:30.920Z,99772.66
2022-11-16T17:28:58.516Z,99759.81
2022-11-16T17:31:28.024Z,99762.25
2022-11-16T17:33:57.506Z,99754.41
2022-11-16T17:36:24.387Z,99760.34
2022-11-16T17:38:51.335Z,99745.03
2022-11-16T17:41:21.768Z,99742.28
2022-11-16T17:43:52.987Z,99746.72
2022-11-16T17:46:23.577Z,99733.19
2022-11-16T17:48:51.293Z,99738.78
2022-11-16T17:51:20.664Z,99748.97
2022-11-16T17:53:49.292Z,99745.47
2022-11-16T17:56:19.051Z,99739.63
2022-11-16T17:58:46.396Z,99734.34
2022-11-16T18:01:14.334Z,99737.34
2022-11-16T18:03:41.583Z,99731.69
2022-11-16T18:06:13.333Z,99729.38
2022-11-16T18:08:41.357Z,99732.19
2022-11-16T18:11:10.907Z,99728.25
2022-11-16T18:13:38.334Z,99730.25
2022-11-16T18:16:12.601Z,99728.72
2022-11-16T18:18:40.133Z,99722.09
2022-11-16T18:21:08.605Z,99724.66
2022-11-16T18:23:37.472Z,99732.03
2022-11-16T18:26:08.476Z,99721.72
2022-11-16T18:28:35.702Z,99711.69
2022-11-16T18:31:07.618Z,99719.34
2022-11-16T18:33:36.624Z,99714.56
2022-11-16T18:36:05.124Z,99710.75
2022-11-16T18:38:32.560Z,99714.72
2022-11-16T18:41:03.239Z,99708.75
2022-11-16T18:43:30.365Z,99723.56
2022-11-16T18:45:57.315Z,99724.91
2022-11-16T18:48:24.359Z,99718.28
2022-11-16T18:50:51.241Z,99723.06
2022-11-16T18:53:18.145Z,99716.44
2022-11-16T18:55:57.589Z,99727.50
2022-11-16T19:01:15.546Z,99733.63
2022-11-16T19:03:42.698Z,99732.38
2022-11-16T19:06:10.823Z,99731.91
2022-11-16T19:08:40.430Z,99734.22
2022-11-16T19:11:16.964Z,99730.50
2022-11-16T19:13:44.757Z,99728.66
2022-11-16T19:16:13.519Z,99725.00
2022-11-16T19:18:40.460Z,99730.97
2022-11-16T19:21:08.825Z,99738.09
2022-11-16T19:23:44.492Z,99734.41
2022-11-16T19:26:13.475Z,99737.38
2022-11-16T19:28:46.072Z,99741.69
2022-11-16T19:31:16.915Z,99754.22
2022-11-16T19:33:45.199Z,99738.56
2022-11-16T19:36:16.443Z,99734.69
2022-11-16T19:38:45.081Z,99732.44
2022-11-16T19:41:14.629Z,99734.75
2022-11-16T19:43:42.021Z,99733.91
2022-11-16T19:46:11.614Z,99734.59
2022-11-16T19:48:39.281Z,99730.19
2022-11-16T19:51:11.122Z,99722.22
2022-11-16T19:53:39.313Z,99722.09
2022-11-16T19:56:08.636Z,99720.41
2022-11-16T19:58:37.114Z,99716.03
2022-11-16T20:01:10.724Z,99714.91
2022-11-16T20:03:38.686Z,99723.47
2022-11-16T20:06:08.572Z,99729.34
2022-11-16T20:08:36.673Z,99728.00
2022-11-16T20:11:14.160Z,99728.75
2022-11-16T20:13:42.547Z,99718.69
2022-11-16T20:16:11.433Z,99712.44
2022-11-16T20:18:39.264Z,99709.72
2022-11-16T20:21:07.639Z,99713.56
2022-11-16T20:23:35.366Z,99718.97
2022-11-16T20:26:10.630Z,99711.84
2022-11-16T20:28:39.586Z,99726.31
2022-11-16T20:31:15.185Z,99714.69
2022-11-16T20:33:42.488Z,99716.53
2022-11-16T20:36:11.501Z,99712.22
2022-11-16T20:38:39.327Z,99708.06
2022-11-16T20:41:23.893Z,99704.50
2022-11-16T20:43:52.525Z,99696.59
2022-11-16T20:46:21.176Z,99698.75
2022-11-16T20:48:48.296Z,99693.44
2022-11-16T20:51:18.152Z,99686.28
2022-11-16T20:53:46.489Z,99692.38
2022-11-16T20:56:14.574Z,99697.06
2022-11-16T20:58:41.639Z,99692.72
2022-11-16T21:01:12.543Z,99686.44
2022-11-16T21:03:40.445Z,99678.34
2022-11-16T21:06:08.881Z,99681.28
2022-11-16T21:08:37.529Z,99683.50
2022-11-16T21:11:19.864Z,99683.66
2022-11-16T21:14:05.624Z,99677.28
2022-11-16T21:16:32.860Z,99671.81
2022-11-16T21:19:00.892Z,99678.94
2022-11-16T21:21:27.995Z,99679.97
2022-11-16T21:23:55.215Z,99677.53
2022-11-16T21:26:30.447Z,99673.28
2022-11-16T21:28:59.466Z,99666.84
2022-11-16T21:31:29.843Z,99667.88
2022-11-16T21:33:57.841Z,99664.00
2022-11-16T21:36:27.124Z,99657.69
2022-11-16T21:38:54.780Z,99662.88
2022-11-16T21:41:24.148Z,99654.63
2022-11-16T21:43:51.235Z,99654.97
2022-11-16T21:46:24.879Z,99655.72
2022-11-16T21:48:52.978Z,99660.41
2022-11-16T21:51:25.332Z,99661.81
2022-11-16T21:53:52.616Z,99663.84
2022-11-16T21:56:21.995Z,99660.38
2022-11-16T21:58:50.470Z,99646.84
2022-11-16T22:01:17.526Z,99649.31
2022-11-16T22:03:44.999Z,99642.03
2022-11-16T22:06:34.704Z,99642.59
2022-11-16T22:09:02.061Z,99644.47
2022-11-16T22:11:29.062Z,99628.78
2022-11-16T22:13:55.945Z,99632.91
2022-11-16T22:16:23.620Z,99630.16
2022-11-16T22:18:51.042Z,99632.50
2022-11-16T22:21:18.226Z,99629.00
2022-11-16T22:23:45.165Z,99633.25
2022-11-16T22:26:13.491Z,99637.19
2022-11-16T22:28:40.410Z,99636.28
2022-11-16T22:31:10.802Z,99629.31
2022-11-16T22:33:38.461Z,99639.75
2022-11-16T22:36:08.514Z,99632.03
2022-11-16T22:38:35.773Z,99632.88
2022-11-16T22:41:02.909Z,99628.78
2022-11-16T22:43:31.180Z,99626.03
2022-11-16T22:45:59.737Z,99636.06
2022-11-16T22:48:34.823Z,99625.41
2022-11-16T22:51:07.103Z,99621.38
2022-11-16T22:53:34.860Z,99628.22
2022-11-16T22:56:09.810Z,99624.53
2022-11-16T22:58:37.775Z,99619.31
2022-11-16T23:01:07.525Z,99604.94
2022-11-16T23:03:35.022Z,99605.44
2022-11-16T23:06:02.385Z,99608.13
2022-11-16T23:08:29.798Z,99600.41
2022-11-16T23:11:26.237Z,99595.75
2022-11-16T23:14:12.701Z,99591.72
2022-11-16T23:16:41.046Z,99591.00
2022-11-16T23:19:28.611Z,99585.19
2022-11-16T23:22:15.215Z,99581.44
2022-11-16T23:25:01.124Z,99594.69
2022-11-16T23:27:37.724Z,99580.28
2022-11-16T23:30:12.194Z,99588.56
2022-11-16T23:32:39.692Z,99591.72
2022-11-16T23:35:06.856Z,99593.78
2022-11-16T23:37:33.767Z,99589.44
2022-11-16T23:40:00.670Z,99594.84
2022-11-16T23:42:45.982Z,99582.63
2022-11-16T23:45:12.936Z,99578.47
2022-11-16T23:47:39.770Z,99577.81
2022-11-16T23:50:06.881Z,99577.06
2022-11-16T23:52:33.722Z,99570.16
2022-11-16T23:55:00.712Z,99569.69
2022-11-16T23:57:27.555Z,99567.78
2022-11-16T23:59:54.408Z,99566.09
